Time;durP1;ratioP1;P1;durP2;ratioP2;P2;SDS_P1;SDS_P2;PMS_P1;PMS_P2;Temp;Humidity;BMP_temperature;BMP_pressure;BME280_temperature;BME280_humidity;BME280_pressure;Samples;Min_cycle;Max_cycle;Signal;HPM_P1;HPM_P2
2021/04/03 00:00:26;;;;;;;17.20;7.85;;;7.50;99.90;;;;;;5039614;28;20463;-79
2021/04/03 00:02:54;;;;;;;17.85;7.68;;;7.50;99.90;;;;;;5039587;28;20069;-81
2021/04/03 00:05:24;;;;;;;16.63;7.72;;;7.50;99.90;;;;;;5038430;28;20131;-79
2021/04/03 00:07:51;;;;;;;15.77;7.70;;;7.40;99.90;;;;;;5038140;28;20053;-79
2021/04/03 00:10:21;;;;;;;22.23;8.60;;;7.40;99.90;;;;;;5038426;28;20084;-79
2021/04/03 00:12:47;;;;;;;15.70;7.55;;;7.50;99.90;;;;;;5038395;28;20092;-79
2021/04/03 00:15:17;;;;;;;12.60;7.15;;;7.50;99.90;;;;;;5039468;28;20049;-79
2021/04/03 00:17:47;;;;;;;20.95;8.15;;;7.50;99.90;;;;;;5044138;28;20053;-80
2021/04/03 00:20:19;;;;;;;15.07;7.65;;;7.40;99.90;;;;;;5041150;28;20124;-80
2021/04/03 00:22:46;;;;;;;19.88;6.97;;;7.40;99.90;;;;;;5044234;28;20108;-82
2021/04/03 00:25:14;;;;;;;15.00;7.32;;;7.40;99.90;;;;;;5044921;28;20085;-80
2021/04/03 00:27:41;;;;;;;19.38;7.18;;;7.40;99.90;;;;;;5043653;28;20088;-80
2021/04/03 00:30:18;;;;;;;17.17;6.40;;;7.30;99.90;;;;;;5045386;28;20084;-79
2021/04/03 00:32:47;;;;;;;21.33;6.82;;;7.30;99.90;;;;;;5050242;28;20106;-80
2021/04/03 00:35:18;;;;;;;18.05;7.85;;;7.30;99.90;;;;;;5047034;28;20060;-80
2021/04/03 00:37:47;;;;;;;20.30;7.72;;;7.30;99.90;;;;;;5046479;28;20053;-80
2021/04/03 00:40:27;;;;;;;18.30;6.57;;;7.30;99.90;;;;;;5047531;28;20441;-80
2021/04/03 00:42:55;;;;;;;18.90;7.55;;;7.30;99.90;;;;;;5046016;28;20076;-80
2021/04/03 00:45:25;;;;;;;16.38;7.15;;;7.30;99.90;;;;;;5049432;28;20049;-79
2021/04/03 00:47:52;;;;;;;20.23;8.02;;;7.20;99.90;;;;;;5047078;28;20077;-78
2021/04/03 00:50:24;;;;;;;22.33;7.00;;;7.20;99.90;;;;;;5043611;28;20161;-80
2021/04/03 00:52:50;;;;;;;20.98;6.28;;;7.10;99.90;;;;;;5044725;28;20083;-79
2021/04/03 00:55:17;;;;;;;17.88;6.93;;;7.10;99.90;;;;;;5043578;28;20099;-80
2021/04/03 00:57:44;;;;;;;19.33;7.35;;;7.10;99.90;;;;;;5038168;28;20054;-79
2021/04/03 01:00:12;;;;;;;24.50;7.03;;;7.00;99.90;;;;;;5037281;28;20057;-80
2021/04/03 01:02:39;;;;;;;22.20;7.25;;;6.90;99.90;;;;;;5036954;28;20144;-79
2021/04/03 01:05:07;;;;;;;21.65;6.90;;;6.80;99.90;;;;;;5036200;28;20096;-81
2021/04/03 01:07:35;;;;;;;23.17;7.75;;;6.70;99.90;;;;;;5035732;28;20084;-79
2021/04/03 01:10:01;;;;;;;22.63;6.75;;;6.60;99.90;;;;;;5036146;28;20087;-79
2021/04/03 01:12:35;;;;;;;31.35;7.97;;;6.50;99.90;;;;;;5035217;28;20115;-77
2021/04/03 01:15:11;;;;;;;19.38;7.30;;;6.50;99.90;;;;;;5040061;28;20175;-79
2021/04/03 01:17:50;;;;;;;19.48;6.90;;;6.40;99.90;;;;;;5038749;28;20049;-81
2021/04/03 01:21:02;;;;;;;21.75;7.60;;;6.30;99.90;;;;;;5037765;28;20133;-79
2021/04/03 01:26:21;;;;;;;23.92;8.00;;;6.20;99.90;;;;;;4982221;28;20050;-83
2021/04/03 01:29:23;;;;;;;18.67;7.10;;;6.20;99.90;;;;;;4984586;28;20563;-79
2021/04/03 01:31:52;;;;;;;25.02;6.60;;;6.20;99.90;;;;;;4941801;28;20085;-80
2021/04/03 01:34:21;;;;;;;21.00;6.88;;;6.20;99.90;;;;;;4983696;28;20507;-80
2021/04/03 01:36:48;;;;;;;14.50;6.97;;;6.10;99.90;;;;;;4982379;28;20090;-80
2021/04/03 01:39:19;;;;;;;23.98;6.70;;;6.10;99.90;;;;;;4982104;28;20145;-80
2021/04/03 01:41:47;;;;;;;23.10;7.47;;;6.00;99.90;;;;;;4981535;28;20464;-79
2021/04/03 01:44:18;;;;;;;19.25;7.90;;;6.00;99.90;;;;;;4977927;28;20081;-80
2021/04/03 01:46:45;;;;;;;20.90;6.95;;;5.90;99.90;;;;;;4980566;28;20078;-78
2021/04/03 01:49:15;;;;;;;20.80;6.75;;;5.90;99.90;;;;;;4979012;28;20189;-79
2021/04/03 01:51:44;;;;;;;17.98;6.50;;;5.90;99.90;;;;;;4978589;28;20079;-76
2021/04/03 01:54:12;;;;;;;22.98;7.32;;;5.90;99.90;;;;;;4976380;28;20133;-79
2021/04/03 01:56:40;;;;;;;23.08;7.35;;;5.90;99.90;;;;;;4979227;28;20523;-79
2021/04/03 01:59:10;;;;;;;17.90;6.85;;;5.90;99.90;;;;;;4978908;28;20082;-79
2021/04/03 02:01:38;;;;;;;18.33;6.40;;;5.90;99.90;;;;;;4977513;28;20085;-81
2021/04/03 02:04:05;;;;;;;20.75;6.55;;;6.00;99.90;;;;;;4981308;28;20054;-81
2021/04/03 02:06:35;;;;;;;16.10;6.38;;;6.00;99.90;;;;;;4986593;28;20086;-81
2021/04/03 02:09:04;;;;;;;19.17;5.85;;;6.00;99.90;;;;;;4985993;28;20074;-81
2021/04/03 02:11:34;;;;;;;22.02;7.25;;;6.10;99.90;;;;;;4985145;28;20073;-80
2021/04/03 02:14:02;;;;;;;19.35;6.03;;;6.10;99.90;;;;;;4981828;28;20051;-79
2021/04/03 02:16:32;;;;;;;24.38;7.15;;;6.10;99.90;;;;;;4981952;28;20047;-79
2021/04/03 02:19:01;;;;;;;21.15;6.30;;;6.20;99.90;;;;;;4982130;28;20491;-79
2021/04/03 02:21:28;;;;;;;18.33;6.30;;;6.20;99.90;;;;;;4979412;28;20078;-79
2021/04/03 02:23:57;;;;;;;17.52;6.05;;;6.20;99.90;;;;;;4981105;28;20137;-80
2021/04/03 02:26:23;;;;;;;14.73;5.40;;;6.10;99.90;;;;;;4997058;28;20050;-81
2021/04/03 02:28:50;;;;;;;11.43;4.13;;;6.10;99.90;;;;;;5002707;28;20078;-80
2021/04/03 02:31:16;;;;;;;15.40;4.20;;;6.00;99.90;;;;;;5001179;28;20114;-80
2021/04/03 02:33:43;;;;;;;12.40;3.95;;;5.80;99.90;;;;;;5001235;28;20061;-80
2021/04/03 02:36:12;;;;;;;17.63;3.88;;;5.70;99.90;;;;;;5000491;28;20513;-80
2021/04/03 02:38:39;;;;;;;29.30;5.45;;;5.70;99.90;;;;;;5002415;28;20062;-80
2021/04/03 02:41:07;;;;;;;17.38;4.25;;;5.80;99.90;;;;;;5003179;28;20046;-81
2021/04/03 02:43:47;;;;;;;12.10;4.25;;;5.80;99.90;;;;;;5002407;28;20046;-80
2021/04/03 02:46:18;;;;;;;15.98;4.13;;;5.90;99.90;;;;;;5001486;28;20069;-79
2021/04/03 02:48:51;;;;;;;16.80;4.43;;;5.90;99.90;;;;;;5000947;28;20053;-80
2021/04/03 02:51:26;;;;;;;15.95;4.93;;;5.90;99.90;;;;;;5001293;28;20046;-81
2021/04/03 02:53:54;;;;;;;21.58;4.95;;;6.00;99.90;;;;;;5000359;28;20061;-81
2021/04/03 02:56:23;;;;;;;30.92;8.32;;;6.10;99.90;;;;;;5000852;28;20112;-80
2021/04/03 02:58:54;;;;;;;11.68;4.75;;;6.10;99.90;;;;;;5000590;28;20054;-79
2021/04/03 03:01:22;;;;;;;15.40;6.35;;;6.20;99.90;;;;;;5000851;28;20065;-81
2021/04/03 03:03:51;;;;;;;14.75;5.82;;;6.20;99.90;;;;;;4999327;28;20054;-81
2021/04/03 03:06:19;;;;;;;11.00;5.30;;;6.30;99.90;;;;;;4998952;28;20113;-81
2021/04/03 03:08:46;;;;;;;20.02;6.82;;;6.30;99.90;;;;;;5000221;28;20053;-81
2021/04/03 03:11:13;;;;;;;13.55;5.90;;;6.40;99.90;;;;;;5000397;28;20514;-80
2021/04/03 03:13:42;;;;;;;16.17;6.55;;;6.40;99.90;;;;;;4996568;28;20082;-80
2021/04/03 03:16:12;;;;;;;17.63;6.78;;;6.40;99.90;;;;;;4996461;28;20081;-78
2021/04/03 03:18:40;;;;;;;21.88;7.57;;;6.40;99.90;;;;;;4996579;28;20137;-80
2021/04/03 03:21:07;;;;;;;20.85;6.63;;;6.40;99.90;;;;;;4996390;28;20086;-79
2021/04/03 03:23:34;;;;;;;23.85;7.15;;;6.40;99.90;;;;;;4999523;28;20538;-82
2021/04/03 03:26:01;;;;;;;18.90;7.00;;;6.50;99.90;;;;;;4999475;28;20137;-80
2021/04/03 03:28:28;;;;;;;20.58;7.00;;;6.50;99.90;;;;;;4999218;28;20050;-81
2021/04/03 03:30:55;;;;;;;16.63;6.90;;;6.50;99.90;;;;;;4999880;28;20133;-82
2021/04/03 03:33:22;;;;;;;19.95;6.68;;;6.50;99.90;;;;;;4999944;28;20077;-79
2021/04/03 03:35:48;;;;;;;21.27;6.72;;;6.50;99.90;;;;;;5002321;28;20050;-81
2021/04/03 03:38:16;;;;;;;15.90;6.40;;;6.60;99.90;;;;;;5001924;28;20074;-82
2021/04/03 03:40:43;;;;;;;21.92;6.65;;;6.60;99.90;;;;;;5000370;28;20046;-80
2021/04/03 03:43:16;;;;;;;25.73;6.93;;;6.60;99.90;;;;;;5000706;28;20073;-82
2021/04/03 03:45:42;;;;;;;;;;;6.60;99.90;;;;;;5002228;28;20055;-80
2021/04/03 03:48:09;;;;;;;24.85;6.40;;;6.60;99.90;;;;;;5000707;28;19993;-81
2021/04/03 03:50:36;;;;;;;14.38;6.32;;;6.60;99.90;;;;;;5001755;28;20074;-81
2021/04/03 03:53:02;;;;;;;22.42;6.28;;;6.50;99.90;;;;;;5000540;28;20054;-80
2021/04/03 03:55:29;;;;;;;21.30;6.40;;;6.50;99.90;;;;;;5000211;28;20047;-81
2021/04/03 03:57:55;;;;;;;16.83;5.85;;;6.50;99.90;;;;;;4999564;28;20102;-81
2021/04/03 04:00:22;;;;;;;15.52;5.30;;;6.50;99.90;;;;;;5000827;28;20073;-82
2021/04/03 04:02:49;;;;;;;11.93;4.50;;;6.50;99.90;;;;;;5005358;28;20077;-81
2021/04/03 04:05:16;;;;;;;14.85;5.47;;;6.40;99.90;;;;;;4998685;28;20265;-80
2021/04/03 04:07:43;;;;;;;19.90;6.30;;;6.40;99.90;;;;;;4996585;28;20050;-79
2021/04/03 04:10:12;;;;;;;20.90;5.78;;;6.50;99.90;;;;;;4996921;28;20058;-80
2021/04/03 04:12:38;;;;;;;21.73;5.82;;;6.50;99.90;;;;;;5000323;28;20085;-82
2021/04/03 04:15:06;;;;;;;17.40;5.43;;;6.50;99.90;;;;;;5000829;28;20069;-80
2021/04/03 04:17:34;;;;;;;19.35;5.13;;;6.50;99.90;;;;;;5001154;28;20081;-82
2021/04/03 04:20:00;;;;;;;17.52;5.28;;;6.50;99.90;;;;;;5004904;28;20073;-81
2021/04/03 04:22:28;;;;;;;13.50;4.55;;;6.50;99.90;;;;;;5009912;28;20526;-82
2021/04/03 04:24:54;;;;;;;21.90;4.70;;;6.50;99.90;;;;;;5008762;28;20050;-82
2021/04/03 04:27:20;;;;;;;18.42;5.10;;;6.50;99.90;;;;;;5004246;28;20062;-82
2021/04/03 04:29:47;;;;;;;21.10;6.22;;;6.60;99.90;;;;;;5001041;28;20066;-82
2021/04/03 04:32:13;;;;;;;17.10;5.07;;;6.60;99.90;;;;;;5001171;28;20057;-83
2021/04/03 04:34:40;;;;;;;21.77;5.35;;;6.60;99.90;;;;;;5004596;28;20504;-82
2021/04/03 04:37:08;;;;;;;14.90;4.70;;;6.60;99.90;;;;;;5004537;28;20054;-81
2021/04/03 04:39:35;;;;;;;17.88;5.60;;;6.60;99.90;;;;;;5007098;28;20046;-81
2021/04/03 04:42:04;;;;;;;17.13;5.18;;;6.60;99.90;;;;;;5005170;28;20046;-81
2021/04/03 04:44:30;;;;;;;24.33;5.72;;;6.60;99.90;;;;;;5004313;28;20610;-80
2021/04/03 04:46:57;;;;;;;18.48;5.70;;;6.50;99.90;;;;;;5004870;28;20058;-81
2021/04/03 04:49:23;;;;;;;17.15;5.60;;;6.50;99.90;;;;;;5005341;28;20051;-81
2021/04/03 04:51:50;;;;;;;17.10;5.63;;;6.60;99.90;;;;;;5013103;28;20057;-82
2021/04/03 04:54:16;;;;;;;17.08;5.43;;;6.60;99.90;;;;;;5016749;28;20613;-82
2021/04/03 04:56:43;;;;;;;18.77;5.30;;;6.60;99.90;;;;;;5017946;28;20047;-83
2021/04/03 04:59:09;;;;;;;17.95;5.45;;;6.60;99.90;;;;;;5013437;28;20054;-81
2021/04/03 05:01:36;;;;;;;17.67;5.20;;;6.60;99.90;;;;;;5005856;28;20101;-81
2021/04/03 05:04:02;;;;;;;20.95;6.03;;;6.50;99.90;;;;;;5006492;28;20511;-82
2021/04/03 05:06:29;;;;;;;22.73;6.45;;;6.60;99.90;;;;;;5006619;28;20133;-81
2021/04/03 05:08:55;;;;;;;21.65;5.68;;;6.60;99.90;;;;;;5006782;28;20068;-82
2021/04/03 05:11:22;;;;;;;22.63;5.40;;;6.50;99.90;;;;;;5006811;28;20054;-81
2021/04/03 05:13:49;;;;;;;21.02;5.10;;;6.50;99.90;;;;;;5019714;23;20105;-79
2021/04/03 05:16:15;;;;;;;21.20;5.13;;;6.50;99.90;;;;;;5026919;28;20053;-79
2021/04/03 05:18:42;;;;;;;22.15;5.68;;;6.50;99.90;;;;;;5039698;28;20095;-79
2021/04/03 05:21:08;;;;;;;22.38;5.57;;;6.60;99.90;;;;;;5039277;28;20128;-80
2021/04/03 05:23:34;;;;;;;20.50;4.97;;;6.50;99.90;;;;;;5046176;28;20045;-78
2021/04/03 05:26:01;;;;;;;24.02;5.93;;;6.50;99.90;;;;;;5045586;28;20045;-80
2021/04/03 05:28:27;;;;;;;22.33;4.72;;;6.50;99.90;;;;;;5041104;28;20053;-80
2021/04/03 05:30:55;;;;;;;18.98;5.97;;;6.50;99.90;;;;;;5038527;28;20069;-81
2021/04/03 05:33:21;;;;;;;19.25;5.00;;;6.50;99.90;;;;;;5038182;28;20517;-79
2021/04/03 05:35:47;;;;;;;20.85;5.63;;;6.50;99.90;;;;;;5039926;28;20438;-80
2021/04/03 05:38:14;;;;;;;19.90;5.43;;;6.50;99.90;;;;;;5039889;28;20140;-78
2021/04/03 05:40:40;;;;;;;23.60;6.22;;;6.60;99.90;;;;;;5039310;28;20069;-79
2021/04/03 05:43:07;;;;;;;24.90;5.88;;;6.60;99.90;;;;;;5039606;28;20136;-80
2021/04/03 05:45:38;;;;;;;21.73;6.15;;;6.60;99.90;;;;;;5038498;28;20107;-80
2021/04/03 05:48:06;;;;;;;21.67;6.30;;;6.70;99.90;;;;;;5037268;28;20072;-79
2021/04/03 05:50:33;;;;;;;18.70;6.40;;;6.70;99.90;;;;;;5038266;28;20514;-81
2021/04/03 05:52:59;;;;;;;22.58;6.65;;;6.70;99.90;;;;;;5040141;28;20084;-81
2021/04/03 05:55:26;;;;;;;23.65;6.35;;;6.80;99.90;;;;;;5038944;28;20108;-80
2021/04/03 05:57:52;;;;;;;21.10;5.88;;;6.90;99.90;;;;;;5038849;28;20103;-80
2021/04/03 06:00:19;;;;;;;20.55;6.05;;;6.90;99.90;;;;;;5039070;28;20052;-82
2021/04/03 06:02:46;;;;;;;23.75;6.47;;;6.90;99.90;;;;;;5039296;28;20083;-80
2021/04/03 06:05:14;;;;;;;18.42;6.00;;;6.90;99.90;;;;;;5039346;28;20099;-81
2021/04/03 06:07:40;;;;;;;14.43;5.55;;;7.10;99.90;;;;;;5039601;28;20132;-82
2021/04/03 06:10:09;;;;;;;23.38;6.18;;;7.10;99.90;;;;;;5039911;28;20076;-80
2021/04/03 06:12:40;;;;;;;21.63;6.47;;;7.20;99.90;;;;;;5040040;28;20049;-80
2021/04/03 06:15:08;;;;;;;19.05;6.63;;;7.30;99.90;;;;;;5038678;28;20108;-80
2021/04/03 06:17:34;;;;;;;26.88;7.30;;;7.40;99.90;;;;;;5038331;28;20140;-80
2021/04/03 06:20:01;;;;;;;26.25;6.30;;;7.50;99.90;;;;;;5036520;28;20111;-80
2021/04/03 06:22:44;;;;;;;20.30;5.78;;;7.70;99.90;;;;;;5036481;28;20092;-78
2021/04/03 06:25:11;;;;;;;19.42;6.00;;;7.90;99.90;;;;;;5036450;28;20227;-80
2021/04/03 06:27:38;;;;;;;22.02;6.10;;;7.90;99.90;;;;;;5035941;28;20084;-79
2021/04/03 06:30:14;;;;;;;21.58;6.10;;;8.30;99.90;;;;;;5037915;28;20061;-80
2021/04/03 06:32:42;;;;;;;19.25;6.68;;;9.00;99.90;;;;;;5037858;28;20049;-78
2021/04/03 06:35:09;;;;;;;21.95;7.05;;;9.50;99.90;;;;;;5038684;28;20113;-80
2021/04/03 06:37:38;;;;;;;21.08;6.78;;;9.90;99.90;;;;;;5039079;28;20053;-80
2021/04/03 06:40:07;;;;;;;17.50;6.63;;;10.20;99.90;;;;;;5041716;28;20049;-80
2021/04/03 06:42:38;;;;;;;23.08;7.03;;;10.40;99.90;;;;;;5040376;28;20088;-79
2021/04/03 06:45:28;;;;;;;19.83;6.25;;;10.50;99.90;;;;;;5037441;28;20050;-78
2021/04/03 06:47:56;;;;;;;19.17;6.85;;;10.70;99.90;;;;;;5039494;28;20080;-81
2021/04/03 06:50:25;;;;;;;19.25;6.57;;;11.00;99.90;;;;;;5043704;28;20123;-83
2021/04/03 06:52:52;;;;;;;18.90;7.10;;;11.20;99.90;;;;;;5045209;28;20497;-80
2021/04/03 06:55:21;;;;;;;19.95;6.97;;;11.00;99.90;;;;;;5038063;28;20047;-80
2021/04/03 06:57:48;;;;;;;17.70;6.57;;;10.80;99.90;;;;;;5038012;28;20076;-79
2021/04/03 07:00:17;;;;;;;24.55;6.63;;;10.70;99.90;;;;;;5037562;28;20041;-79
2021/04/03 07:02:54;;;;;;;19.30;7.07;;;10.70;99.90;;;;;;5037432;28;20089;-78
2021/04/03 07:05:22;;;;;;;17.77;6.45;;;10.50;99.90;;;;;;5034309;28;20105;-79
2021/04/03 07:07:49;;;;;;;18.70;6.05;;;10.10;99.90;;;;;;5034027;28;20195;-79
2021/04/03 07:10:18;;;;;;;23.23;6.50;;;9.70;99.90;;;;;;5033746;28;20045;-78
2021/04/03 07:12:45;;;;;;;21.98;6.95;;;9.50;99.90;;;;;;5033907;28;20073;-80
2021/04/03 07:15:13;;;;;;;22.25;6.75;;;9.30;99.90;;;;;;5036434;28;20080;-79
2021/04/03 07:17:41;;;;;;;24.13;7.05;;;9.10;99.90;;;;;;5034972;28;20110;-78
2021/04/03 07:20:10;;;;;;;27.05;7.75;;;9.00;99.90;;;;;;5036677;28;20053;-79
2021/04/03 07:22:38;;;;;;;20.50;6.30;;;9.00;99.90;;;;;;5038362;28;20045;-81
2021/04/03 07:25:08;;;;;;;21.13;7.28;;;9.00;99.90;;;;;;5081248;22;20140;-78
2021/04/03 07:27:37;;;;;;;16.48;6.40;;;9.40;99.90;;;;;;5034750;28;20053;-79
2021/04/03 07:30:06;;;;;;;23.08;6.63;;;9.90;99.90;;;;;;5034484;28;20128;-78
2021/04/03 07:32:38;;;;;;;21.50;7.40;;;10.00;99.90;;;;;;5034367;28;20104;-78
2021/04/03 07:35:16;;;;;;;25.67;8.43;;;10.00;99.90;;;;;;5034478;28;20409;-77
2021/04/03 07:37:43;;;;;;;26.10;9.63;;;9.90;99.90;;;;;;5034268;28;20053;-78
2021/04/03 07:40:13;;;;;;;23.98;8.63;;;9.80;99.90;;;;;;5034176;28;20046;-78
2021/04/03 07:42:41;;;;;;;31.05;8.20;;;9.50;99.90;;;;;;5034242;28;20105;-78
2021/04/03 07:45:46;;;;;;;21.85;7.30;;;9.60;99.90;;;;;;5034300;28;20063;-77
2021/04/03 07:48:49;;;;;;;23.02;7.32;;;9.70;99.90;;;;;;5033533;28;20100;-78
2021/04/03 07:51:37;;;;;;;21.58;6.80;;;9.70;99.90;;;;;;5034494;28;20077;-78
2021/04/03 07:54:11;;;;;;;19.50;6.97;;;9.70;99.90;;;;;;5034045;28;20128;-78
2021/04/03 07:56:56;;;;;;;21.55;7.53;;;9.70;99.90;;;;;;5034667;28;20053;-77
2021/04/03 07:59:54;;;;;;;18.30;7.68;;;9.80;99.90;;;;;;5035198;28;20084;-78
2021/04/03 08:02:30;;;;;;;24.38;7.65;;;9.60;99.90;;;;;;5034084;28;20092;-80
2021/04/03 08:04:57;;;;;;;18.67;7.45;;;9.40;99.90;;;;;;5034178;28;20055;-78
2021/04/03 08:07:25;;;;;;;25.70;8.10;;;9.40;99.90;;;;;;5037137;28;20468;-78
2021/04/03 08:09:52;;;;;;;29.27;7.55;;;9.30;99.90;;;;;;5039403;28;20127;-77
2021/04/03 08:12:29;;;;;;;20.92;6.82;;;9.20;99.90;;;;;;5040030;28;20128;-78
2021/04/03 08:14:57;;;;;;;28.48;7.55;;;9.10;99.90;;;;;;5040483;28;20076;-78
2021/04/03 08:17:24;;;;;;;24.58;7.15;;;9.00;99.90;;;;;;5039321;28;20084;-78
2021/04/03 08:19:51;;;;;;;23.50;7.47;;;9.00;99.90;;;;;;5040440;28;20124;-77
2021/04/03 08:22:18;;;;;;;24.00;7.43;;;8.90;99.90;;;;;;5042190;28;20057;-78
2021/04/03 08:24:58;;;;;;;21.65;7.68;;;8.90;99.90;;;;;;5041188;28;20510;-78
2021/04/03 08:27:36;;;;;;;29.75;7.13;;;9.00;99.90;;;;;;5046606;28;20118;-78
2021/04/03 08:30:23;;;;;;;25.08;6.68;;;9.10;99.90;;;;;;5045004;28;20046;-77
2021/04/03 08:33:10;;;;;;;18.90;6.50;;;9.10;99.90;;;;;;5045018;28;20072;-77
2021/04/03 08:35:38;;;;;;;22.95;7.78;;;9.30;99.90;;;;;;5043816;28;20105;-78
2021/04/03 08:38:22;;;;;;;23.65;7.38;;;9.80;99.90;;;;;;5044820;28;20053;-78
2021/04/03 08:40:53;;;;;;;16.83;7.13;;;10.10;99.90;;;;;;5046243;28;20041;-77
2021/04/03 08:43:25;;;;;;;18.85;7.97;;;10.40;99.90;;;;;;5046407;28;20099;-77
2021/04/03 08:45:53;;;;;;;22.23;8.23;;;10.60;99.90;;;;;;5047403;28;20084;-78
2021/04/03 08:48:20;;;;;;;23.42;7.78;;;10.70;99.90;;;;;;5045608;28;20113;-77
2021/04/03 08:50:48;;;;;;;25.30;7.63;;;11.10;99.90;;;;;;5045727;28;20080;-77
2021/04/03 08:53:15;;;;;;;22.80;8.35;;;11.70;99.90;;;;;;5036508;28;20188;-78
2021/04/03 08:55:42;;;;;;;22.02;8.50;;;11.80;99.90;;;;;;5044191;28;20080;-79
2021/04/03 08:58:08;;;;;;;21.05;8.40;;;12.10;99.90;;;;;;5044792;28;20049;-78
2021/04/03 09:00:35;;;;;;;23.33;8.00;;;12.10;99.90;;;;;;5043026;28;20141;-78
2021/04/03 09:03:03;;;;;;;23.95;7.80;;;12.20;99.90;;;;;;5019048;28;20056;-78
2021/04/03 09:05:30;;;;;;;17.40;7.25;;;12.50;99.90;;;;;;5034161;28;20133;-78
2021/04/03 09:07:56;;;;;;;19.45;7.22;;;12.40;99.90;;;;;;5038837;28;20123;-78
2021/04/03 09:10:24;;;;;;;21.52;7.43;;;12.20;99.90;;;;;;5047282;28;20077;-80
2021/04/03 09:12:52;;;;;;;18.40;6.68;;;12.00;99.90;;;;;;5041475;28;20128;-80
2021/04/03 09:15:27;;;;;;;22.10;6.35;;;12.10;99.90;;;;;;5038755;28;20091;-81
2021/04/03 09:17:54;;;;;;;20.98;6.43;;;12.20;99.90;;;;;;5040769;28;20049;-78
2021/04/03 09:20:23;;;;;;;16.02;5.60;;;11.70;99.90;;;;;;5032451;28;20099;-81
2021/04/03 09:22:52;;;;;;;16.55;6.30;;;11.70;99.90;;;;;;5042213;28;20053;-80
2021/04/03 09:25:20;;;;;;;20.23;6.18;;;11.80;99.90;;;;;;5041491;28;20069;-79
2021/04/03 09:28:03;;;;;;;16.25;6.07;;;11.40;99.90;;;;;;5042375;28;20474;-79
2021/04/03 09:30:37;;;;;;;19.50;6.28;;;11.40;99.90;;;;;;5041268;28;20076;-79
2021/04/03 09:33:21;;;;;;;19.52;6.90;;;11.30;99.90;;;;;;5044530;28;20128;-81
2021/04/03 09:35:49;;;;;;;15.57;5.93;;;11.40;99.90;;;;;;5036700;28;20073;-81
2021/04/03 09:38:28;;;;;;;18.20;5.68;;;11.60;99.90;;;;;;5042400;28;20084;-81
2021/04/03 09:40:57;;;;;;;15.60;6.13;;;11.50;99.90;;;;;;5037985;28;20623;-80
2021/04/03 09:43:40;;;;;;;26.45;6.57;;;11.40;99.90;;;;;;5042009;28;20049;-81
2021/04/03 09:46:11;;;;;;;26.38;7.00;;;11.30;99.90;;;;;;5040300;28;20569;-78
2021/04/03 09:49:00;;;;;;;20.55;6.50;;;11.40;99.90;;;;;;5043381;28;20113;-82
2021/04/03 09:51:28;;;;;;;17.85;7.00;;;11.20;99.90;;;;;;5040897;28;20045;-81
2021/04/03 09:53:57;;;;;;;21.35;6.53;;;11.20;99.90;;;;;;5042182;28;20469;-80
2021/04/03 09:56:23;;;;;;;23.08;8.82;;;11.10;99.90;;;;;;5039726;28;20061;-79
2021/04/03 09:58:50;;;;;;;23.73;8.10;;;10.90;99.90;;;;;;5042193;28;20072;-78
2021/04/03 10:01:16;;;;;;;20.27;7.20;;;10.40;99.90;;;;;;5042480;28;20069;-80
2021/04/03 10:03:42;;;;;;;22.70;7.15;;;10.40;99.90;;;;;;5042212;28;20053;-78
2021/04/03 10:06:09;;;;;;;24.88;8.32;;;10.70;99.90;;;;;;5033965;28;20141;-79
2021/04/03 10:08:36;;;;;;;22.38;7.22;;;10.90;99.90;;;;;;5032962;28;20534;-79
2021/04/03 10:11:03;;;;;;;23.38;7.22;;;11.10;99.90;;;;;;5027622;28;20065;-79
2021/04/03 10:13:29;;;;;;;20.35;6.97;;;11.10;99.90;;;;;;5035232;28;20561;-79
2021/04/03 10:16:01;;;;;;;17.40;7.07;;;11.30;99.90;;;;;;5035960;28;20061;-79
2021/04/03 10:18:36;;;;;;;24.55;7.65;;;11.50;99.90;;;;;;5047677;28;20066;-81
2021/04/03 10:21:03;;;;;;;20.63;7.93;;;11.70;99.90;;;;;;5042288;28;20092;-79
2021/04/03 10:23:29;;;;;;;23.45;7.20;;;11.70;99.90;;;;;;5037787;28;20049;-78
2021/04/03 10:25:57;;;;;;;26.63;7.78;;;11.70;99.90;;;;;;5037568;28;20049;-80
2021/04/03 10:28:23;;;;;;;25.38;8.27;;;11.80;99.90;;;;;;5038611;28;20053;-79
2021/04/03 10:30:50;;;;;;;17.92;7.07;;;11.80;99.90;;;;;;5038212;28;20073;-80
2021/04/03 10:33:17;;;;;;;24.17;9.20;;;11.80;99.90;;;;;;5037062;28;20057;-79
2021/04/03 10:35:44;;;;;;;20.05;6.93;;;11.80;99.90;;;;;;5034566;28;20127;-80
2021/04/03 10:38:10;;;;;;;19.27;7.10;;;11.90;99.90;;;;;;5037378;28;20088;-80
2021/04/03 10:40:36;;;;;;;20.33;7.13;;;12.00;99.90;;;;;;5035000;28;20056;-79
2021/04/03 10:43:04;;;;;;;22.23;7.53;;;12.20;99.90;;;;;;5035580;28;20076;-79
2021/04/03 10:45:30;;;;;;;20.17;8.10;;;12.30;99.90;;;;;;5035205;28;20049;-79
2021/04/03 10:47:57;;;;;;;18.58;7.63;;;12.40;99.90;;;;;;5035643;28;20141;-79
2021/04/03 10:50:24;;;;;;;24.30;7.82;;;12.40;99.90;;;;;;5036438;28;20239;-79
2021/04/03 10:52:50;;;;;;;27.92;8.40;;;12.20;99.90;;;;;;5035728;28;20061;-80
2021/04/03 10:55:17;;;;;;;20.50;8.27;;;12.20;99.90;;;;;;5034750;28;20041;-80
2021/04/03 10:57:43;;;;;;;20.48;8.05;;;12.30;99.90;;;;;;5038320;28;20134;-81
2021/04/03 11:00:12;;;;;;;20.85;8.30;;;12.30;99.90;;;;;;5040285;28;20113;-79
2021/04/03 11:02:48;;;;;;;16.70;8.65;;;12.40;99.90;;;;;;5039789;28;20605;-80
2021/04/03 11:05:17;;;;;;;19.70;8.10;;;12.40;99.90;;;;;;5038034;28;20106;-80
2021/04/03 11:08:04;;;;;;;24.10;8.43;;;12.30;99.90;;;;;;5037545;28;20060;-79
2021/04/03 11:10:38;;;;;;;20.98;8.70;;;12.40;99.90;;;;;;5038276;28;20135;-79
2021/04/03 11:13:09;;;;;;;24.05;9.50;;;12.50;99.90;;;;;;5037226;28;20049;-77
2021/04/03 11:15:41;;;;;;;21.25;9.65;;;12.40;99.90;;;;;;5036162;28;20050;-79
2021/04/03 11:18:07;;;;;;;23.13;8.73;;;12.40;99.90;;;;;;5035914;28;20067;-80
2021/04/03 11:20:35;;;;;;;20.52;8.73;;;12.40;99.90;;;;;;5035688;28;20506;-78
2021/04/03 11:23:02;;;;;;;23.20;8.57;;;12.50;99.90;;;;;;5037044;28;20501;-79
2021/04/03 11:25:29;;;;;;;22.30;8.68;;;12.50;99.90;;;;;;5037417;28;20049;-79
2021/04/03 11:27:55;;;;;;;16.50;8.85;;;12.30;99.90;;;;;;5037208;28;20055;-79
2021/04/03 11:30:23;;;;;;;21.02;9.05;;;12.20;99.90;;;;;;5036544;28;20100;-79
2021/04/03 11:32:51;;;;;;;20.95;10.13;;;12.40;99.90;;;;;;5029814;28;20041;-79
2021/04/03 11:35:19;;;;;;;23.38;11.10;;;12.40;99.90;;;;;;5033713;28;20160;-78
2021/04/03 11:37:46;;;;;;;15.25;9.77;;;12.60;99.90;;;;;;5035072;28;20532;-78
2021/04/03 11:40:14;;;;;;;22.63;10.07;;;12.40;99.90;;;;;;5033923;28;20103;-79
2021/04/03 11:42:40;;;;;;;18.52;9.65;;;12.30;99.90;;;;;;5043459;28;20105;-79
2021/04/03 11:45:09;;;;;;;17.77;9.13;;;12.40;99.90;;;;;;5034525;28;20113;-79
2021/04/03 11:47:35;;;;;;;20.27;10.13;;;12.50;99.90;;;;;;5034564;28;20077;-80
2021/04/03 11:50:03;;;;;;;16.33;9.85;;;12.60;99.90;;;;;;5034211;28;20128;-79
2021/04/03 11:52:32;;;;;;;19.45;10.52;;;12.50;99.90;;;;;;5036565;28;20076;-81
2021/04/03 11:55:02;;;;;;;21.17;10.65;;;12.50;99.90;;;;;;5036970;28;20065;-79
2021/04/03 11:57:29;;;;;;;20.67;10.90;;;12.60;99.90;;;;;;5033825;28;20050;-80
2021/04/03 11:59:55;;;;;;;18.23;9.07;;;12.90;99.90;;;;;;5035259;28;20136;-78
2021/04/03 12:02:22;;;;;;;19.95;10.57;;;13.00;99.90;;;;;;5034841;28;20081;-78
2021/04/03 12:04:48;;;;;;;19.45;9.48;;;13.20;99.90;;;;;;5034919;28;20125;-79
2021/04/03 12:07:16;;;;;;;21.02;9.85;;;13.30;99.90;;;;;;5033702;28;20049;-78
2021/04/03 12:09:42;;;;;;;20.70;9.30;;;13.30;99.90;;;;;;5034097;28;20128;-79
2021/04/03 12:12:10;;;;;;;20.98;10.40;;;13.10;99.90;;;;;;5033109;28;20084;-78
2021/04/03 12:14:36;;;;;;;18.25;10.48;;;13.10;99.90;;;;;;5032156;28;20049;-78
2021/04/03 12:17:03;;;;;;;18.92;10.30;;;13.20;99.90;;;;;;5033406;28;20075;-79
2021/04/03 12:19:31;;;;;;;24.85;10.90;;;12.70;99.90;;;;;;5034632;28;20049;-79
2021/04/03 12:21:57;;;;;;;20.35;9.95;;;12.40;99.90;;;;;;5038124;28;20080;-79
2021/04/03 12:24:24;;;;;;;20.55;9.25;;;12.50;99.90;;;;;;5036186;28;20149;-79
2021/04/03 12:26:51;;;;;;;19.10;9.43;;;12.70;99.90;;;;;;5035973;28;20045;-78
2021/04/03 12:29:17;;;;;;;23.27;9.65;;;12.90;99.90;;;;;;5035626;28;20087;-79
2021/04/03 12:31:43;;;;;;;27.80;12.85;;;12.80;99.90;;;;;;5036694;28;20134;-79
2021/04/03 12:34:10;;;;;;;18.20;10.32;;;12.70;99.90;;;;;;5036603;28;20133;-79
2021/04/03 12:36:36;;;;;;;17.55;12.45;;;12.70;99.90;;;;;;5038948;28;20109;-79
2021/04/03 12:39:04;;;;;;;16.00;11.13;;;12.40;99.90;;;;;;5046729;28;20057;-80
2021/04/03 12:41:31;;;;;;;18.55;11.07;;;12.50;99.90;;;;;;5041989;28;20049;-79
2021/04/03 12:43:57;;;;;;;21.33;10.02;;;12.60;99.90;;;;;;5026976;28;20149;-81
2021/04/03 12:46:23;;;;;;;18.08;10.63;;;12.60;99.90;;;;;;5031683;28;20077;-80
2021/04/03 12:48:50;;;;;;;23.15;11.55;;;12.80;99.90;;;;;;5033051;28;20101;-81
2021/04/03 12:51:16;;;;;;;20.02;11.57;;;12.90;99.90;;;;;;5030806;28;20049;-79
2021/04/03 12:53:43;;;;;;;19.13;10.57;;;12.90;99.90;;;;;;5035079;28;20065;-80
2021/04/03 12:56:09;;;;;;;18.08;12.25;;;13.10;99.90;;;;;;5030180;28;20529;-79